sensor_id;sensor_type;location;lat;lon;timestamp;pressure;altitude;pressure_sealevel;temperature;humidity
49835;BME280;35729;52.090;13.162;2022-11-20T00:01:58;100671.09;;;-1.99;89.87
49835;BME280;35729;52.090;13.162;2022-11-20T00:04:26;100678.78;;;-2.01;89.85
49835;BME280;35729;52.090;13.162;2022-11-20T00:06:55;100675.38;;;-2.00;89.90
49835;BME280;35729;52.090;13.162;2022-11-20T00:09:26;100668.53;;;-1.99;89.67
49835;BME280;35729;52.090;13.162;2022-11-20T00:11:54;100661.63;;;-2.00;89.84
49835;BME280;35729;52.090;13.162;2022-11-20T00:14:23;100667.56;;;-2.03;89.82
49835;BME280;35729;52.090;13.162;2022-11-20T00:16:51;100668.44;;;-2.02;89.77
49835;BME280;35729;52.090;13.162;2022-11-20T00:19:20;100667.53;;;-2.04;89.68
49835;BME280;35729;52.090;13.162;2022-11-20T00:21:48;100670.94;;;-2.05;89.58
49835;BME280;35729;52.090;13.162;2022-11-20T00:24:19;100664.06;;;-2.05;89.62
49835;BME280;35729;52.090;13.162;2022-11-20T00:26:50;100668.34;;;-2.05;89.40
49835;BME280;35729;52.090;13.162;2022-11-20T00:29:18;100670.88;;;-2.07;89.32
49835;BME280;35729;52.090;13.162;2022-11-20T00:31:47;100661.44;;;-2.08;89.52
49835;BME280;35729;52.090;13.162;2022-11-20T00:34:15;100657.09;;;-2.09;89.41
49835;BME280;35729;52.090;13.162;2022-11-20T00:36:44;100665.72;;;-2.08;89.31
49835;BME280;35729;52.090;13.162;2022-11-20T00:39:12;100670.84;;;-2.08;89.32
49835;BME280;35729;52.090;13.162;2022-11-20T00:41:40;100670.88;;;-2.07;89.50
49835;BME280;35729;52.090;13.162;2022-11-20T00:44:11;100674.31;;;-2.06;89.48
49835;BME280;35729;52.090;13.162;2022-11-20T00:46:40;100674.44;;;-2.03;89.12
49835;BME280;35729;52.090;13.162;2022-11-20T00:49:08;100671.00;;;-2.02;89.41
49835;BME280;35729;52.090;13.162;2022-11-20T00:51:37;100676.22;;;-2.01;89.05
49835;BME280;35729;52.090;13.162;2022-11-20T00:54:05;100668.53;;;-1.99;89.27
49835;BME280;35729;52.090;13.162;2022-11-20T00:56:33;100673.75;;;-1.96;89.16
49835;BME280;35729;52.090;13.162;2022-11-20T00:59:02;100671.25;;;-1.94;89.13
49835;BME280;35729;52.090;13.162;2022-11-20T01:01:33;100678.16;;;-1.92;88.70
49835;BME280;35729;52.090;13.162;2022-11-20T01:04:02;100679.88;;;-1.91;89.05
49835;BME280;35729;52.090;13.162;2022-11-20T01:06:32;100673.91;;;-1.90;89.14
49835;BME280;35729;52.090;13.162;2022-11-20T01:09:04;100677.41;;;-1.88;89.18
49835;BME280;35729;52.090;13.162;2022-11-20T01:11:35;100678.34;;;-1.86;88.89
49835;BME280;35729;52.090;13.162;2022-11-20T01:14:05;100678.34;;;-1.86;89.01
49835;BME280;35729;52.090;13.162;2022-11-20T01:16:38;100675.81;;;-1.84;89.02
49835;BME280;35729;52.090;13.162;2022-11-20T01:19:09;100676.69;;;-1.82;88.87
49835;BME280;35729;52.090;13.162;2022-11-20T01:21:40;100667.31;;;-1.82;88.94
49835;BME280;35729;52.090;13.162;2022-11-20T01:24:12;100674.19;;;-1.81;88.96
49835;BME280;35729;52.090;13.162;2022-11-20T01:26:42;100670.72;;;-1.81;88.70
49835;BME280;35729;52.090;13.162;2022-11-20T01:29:14;100669.91;;;-1.80;88.63
49835;BME280;35729;52.090;13.162;2022-11-20T01:31:45;100664.78;;;-1.80;88.79
49835;BME280;35729;52.090;13.162;2022-11-20T01:34:15;100669.06;;;-1.81;88.69
49835;BME280;35729;52.090;13.162;2022-11-20T01:36:44;100661.34;;;-1.81;88.70
49835;BME280;35729;52.090;13.162;2022-11-20T01:39:15;100669.88;;;-1.82;88.58
49835;BME280;35729;52.090;13.162;2022-11-20T01:41:45;100655.28;;;-1.83;88.34
49835;BME280;35729;52.090;13.162;2022-11-20T01:44:48;100662.97;;;-1.83;88.30
49835;BME280;35729;52.090;13.162;2022-11-20T01:47:22;100655.19;;;-1.86;88.21
49835;BME280;35729;52.090;13.162;2022-11-20T01:49:55;100657.81;;;-1.84;88.26
49835;BME280;35729;52.090;13.162;2022-11-20T01:52:28;100646.59;;;-1.86;87.79
49835;BME280;35729;52.090;13.162;2022-11-20T01:55:01;100654.34;;;-1.85;87.94
49835;BME280;35729;52.090;13.162;2022-11-20T01:57:33;100649.19;;;-1.85;88.19
49835;BME280;35729;52.090;13.162;2022-11-20T02:00:06;100640.66;;;-1.84;88.21
49835;BME280;35729;52.090;13.162;2022-11-20T02:02:39;100648.38;;;-1.84;87.45
49835;BME280;35729;52.090;13.162;2022-11-20T02:05:14;100647.56;;;-1.83;87.56
49835;BME280;35729;52.090;13.162;2022-11-20T02:07:46;100645.84;;;-1.82;87.64
49835;BME280;35729;52.090;13.162;2022-11-20T02:10:15;100639.00;;;-1.82;86.81
49835;BME280;35729;52.090;13.162;2022-11-20T02:12:50;100640.75;;;-1.81;87.20
49835;BME280;35729;52.090;13.162;2022-11-20T02:15:37;100634.72;;;-1.81;87.51
49835;BME280;35729;52.090;13.162;2022-11-20T02:18:09;100642.53;;;-1.78;87.49
49835;BME280;35729;52.090;13.162;2022-11-20T02:20:38;100634.81;;;-1.78;87.61
49835;BME280;35729;52.090;13.162;2022-11-20T02:23:12;100635.69;;;-1.77;87.25
49835;BME280;35729;52.090;13.162;2022-11-20T02:25:43;100641.75;;;-1.75;87.51
49835;BME280;35729;52.090;13.162;2022-11-20T02:28:14;100642.66;;;-1.73;86.98
49835;BME280;35729;52.090;13.162;2022-11-20T02:30:43;100638.38;;;-1.73;87.27
49835;BME280;35729;52.090;13.162;2022-11-20T02:33:12;100637.59;;;-1.70;87.86
49835;BME280;35729;52.090;13.162;2022-11-20T02:35:44;100637.63;;;-1.69;87.52
49835;BME280;35729;52.090;13.162;2022-11-20T02:38:14;100630.78;;;-1.68;87.10
49835;BME280;35729;52.090;13.162;2022-11-20T02:40:45;100632.53;;;-1.67;87.04
49835;BME280;35729;52.090;13.162;2022-11-20T02:43:15;100620.47;;;-1.68;87.01
49835;BME280;35729;52.090;13.162;2022-11-20T02:45:44;100617.03;;;-1.70;86.78
49835;BME280;35729;52.090;13.162;2022-11-20T02:48:12;100626.53;;;-1.68;86.58
49835;BME280;35729;52.090;13.162;2022-11-20T02:50:40;100623.06;;;-1.68;86.51
49835;BME280;35729;52.090;13.162;2022-11-20T02:53:09;100618.81;;;-1.68;85.98
49835;BME280;35729;52.090;13.162;2022-11-20T02:55:37;100617.91;;;-1.68;86.09
49835;BME280;35729;52.090;13.162;2022-11-20T02:58:09;100613.69;;;-1.66;87.02
49835;BME280;35729;52.090;13.162;2022-11-20T03:00:37;100618.00;;;-1.65;86.79
49835;BME280;35729;52.090;13.162;2022-11-20T03:03:05;100620.59;;;-1.65;86.65
49835;BME280;35729;52.090;13.162;2022-11-20T03:05:35;100610.28;;;-1.65;86.09
49835;BME280;35729;52.090;13.162;2022-11-20T03:08:03;100600.84;;;-1.65;86.27
49835;BME280;35729;52.090;13.162;2022-11-20T03:10:32;100612.03;;;-1.64;87.00
49835;BME280;35729;52.090;13.162;2022-11-20T03:13:00;100605.19;;;-1.64;86.73
49835;BME280;35729;52.090;13.162;2022-11-20T03:15:31;100608.63;;;-1.63;86.69
49835;BME280;35729;52.090;13.162;2022-11-20T03:18:00;100611.22;;;-1.63;86.98
49835;BME280;35729;52.090;13.162;2022-11-20T03:20:29;100607.75;;;-1.64;86.65
49835;BME280;35729;52.090;13.162;2022-11-20T03:22:57;100608.56;;;-1.65;86.43
49835;BME280;35729;52.090;13.162;2022-11-20T03:25:25;100605.97;;;-1.66;86.85
49835;BME280;35729;52.090;13.162;2022-11-20T03:27:54;100601.66;;;-1.67;86.74
49835;BME280;35729;52.090;13.162;2022-11-20T03:30:22;100597.34;;;-1.68;86.64
49835;BME280;35729;52.090;13.162;2022-11-20T03:32:55;100601.63;;;-1.69;86.43
49835;BME280;35729;52.090;13.162;2022-11-20T03:35:23;100589.56;;;-1.71;86.25
49835;BME280;35729;52.090;13.162;2022-11-20T03:37:52;100589.53;;;-1.73;86.45
49835;BME280;35729;52.090;13.162;2022-11-20T03:40:20;100583.47;;;-1.73;86.03
49835;BME280;35729;52.090;13.162;2022-11-20T03:42:49;100589.47;;;-1.74;86.31
49835;BME280;35729;52.090;13.162;2022-11-20T03:45:18;100585.09;;;-1.77;86.11
49835;BME280;35729;52.090;13.162;2022-11-20T03:47:46;100583.41;;;-1.76;86.58
49835;BME280;35729;52.090;13.162;2022-11-20T03:50:17;100589.38;;;-1.77;86.61
49835;BME280;35729;52.090;13.162;2022-11-20T03:52:46;100583.38;;;-1.78;86.23
49835;BME280;35729;52.090;13.162;2022-11-20T03:55:14;100584.25;;;-1.77;86.64
49835;BME280;35729;52.090;13.162;2022-11-20T03:57:42;100580.75;;;-1.80;86.69
49835;BME280;35729;52.090;13.162;2022-11-20T04:00:13;100577.28;;;-1.82;86.17
49835;BME280;35729;52.090;13.162;2022-11-20T04:02:41;100585.78;;;-1.84;86.33
49835;BME280;35729;52.090;13.162;2022-11-20T04:05:09;100587.41;;;-1.88;85.96
49835;BME280;35729;52.090;13.162;2022-11-20T04:07:40;100587.31;;;-1.91;86.09
49835;BME280;35729;52.090;13.162;2022-11-20T04:10:09;100583.75;;;-1.96;85.90
49835;BME280;35729;52.090;13.162;2022-11-20T04:12:37;100590.53;;;-2.00;86.23
49835;BME280;35729;52.090;13.162;2022-11-20T04:15:07;100579.97;;;-2.09;86.63
49835;BME280;35729;52.090;13.162;2022-11-20T04:17:35;100579.03;;;-2.13;86.15
49835;BME280;35729;52.090;13.162;2022-11-20T04:20:05;100586.66;;;-2.16;86.05
49835;BME280;35729;52.090;13.162;2022-11-20T04:22:34;100593.38;;;-2.21;86.68
49835;BME280;35729;52.090;13.162;2022-11-20T04:25:05;100583.84;;;-2.25;86.58
49835;BME280;35729;52.090;13.162;2022-11-20T04:27:34;100592.31;;;-2.27;86.85
49835;BME280;35729;52.090;13.162;2022-11-20T04:30:03;100600.75;;;-2.33;86.54
49835;BME280;35729;52.090;13.162;2022-11-20T04:32:32;100592.00;;;-2.40;86.07
49835;BME280;35729;52.090;13.162;2022-11-20T04:35:00;100596.16;;;-2.43;86.44
49835;BME280;35729;52.090;13.162;2022-11-20T04:37:28;100596.00;;;-2.50;86.67
49835;BME280;35729;52.090;13.162;2022-11-20T04:39:57;100594.16;;;-2.54;87.02
49835;BME280;35729;52.090;13.162;2022-11-20T04:42:28;100589.75;;;-2.58;86.64
49835;BME280;35729;52.090;13.162;2022-11-20T04:44:57;100589.66;;;-2.61;86.87
49835;BME280;35729;52.090;13.162;2022-11-20T04:47:25;100587.88;;;-2.64;87.19
49835;BME280;35729;52.090;13.162;2022-11-20T04:49:54;100584.34;;;-2.67;86.74
49835;BME280;35729;52.090;13.162;2022-11-20T04:52:22;100580.84;;;-2.69;86.86
49835;BME280;35729;52.090;13.162;2022-11-20T04:54:51;100579.06;;;-2.72;86.66
49835;BME280;35729;52.090;13.162;2022-11-20T04:57:20;100583.25;;;-2.75;86.54
49835;BME280;35729;52.090;13.162;2022-11-20T04:59:51;100580.59;;;-2.79;86.49
49835;BME280;35729;52.090;13.162;2022-11-20T05:02:27;100578.03;;;-2.79;86.65
49835;BME280;35729;52.090;13.162;2022-11-20T05:04:55;100572.84;;;-2.80;86.64
49835;BME280;35729;52.090;13.162;2022-11-20T05:07:24;100569.38;;;-2.81;87.11
49835;BME280;35729;52.090;13.162;2022-11-20T05:09:52;100566.81;;;-2.81;86.84
49835;BME280;35729;52.090;13.162;2022-11-20T05:12:21;100564.25;;;-2.81;86.48
49835;BME280;35729;52.090;13.162;2022-11-20T05:14:52;100560.00;;;-2.80;86.71
49835;BME280;35729;52.090;13.162;2022-11-20T05:17:20;100568.56;;;-2.80;86.05
49835;BME280;35729;52.090;13.162;2022-11-20T05:19:48;100563.38;;;-2.81;86.55
49835;BME280;35729;52.090;13.162;2022-11-20T05:22:17;100569.47;;;-2.79;86.07
49835;BME280;35729;52.090;13.162;2022-11-20T05:24:45;100567.72;;;-2.80;86.39
49835;BME280;35729;52.090;13.162;2022-11-20T05:27:21;100564.22;;;-2.82;86.03
49835;BME280;35729;52.090;13.162;2022-11-20T05:29:52;100560.00;;;-2.80;86.16
49835;BME280;35729;52.090;13.162;2022-11-20T05:32:20;100565.13;;;-2.80;86.03
49835;BME280;35729;52.090;13.162;2022-11-20T05:34:50;100566.00;;;-2.80;85.79
49835;BME280;35729;52.090;13.162;2022-11-20T05:37:19;100567.72;;;-2.80;86.02
49835;BME280;35729;52.090;13.162;2022-11-20T05:39:47;100561.69;;;-2.81;85.95
49835;BME280;35729;52.090;13.162;2022-11-20T05:42:16;100562.53;;;-2.82;85.89
49835;BME280;35729;52.090;13.162;2022-11-20T05:45:03;100560.78;;;-2.83;86.02
49835;BME280;35729;52.090;13.162;2022-11-20T05:47:33;100560.78;;;-2.83;86.15
49835;BME280;35729;52.090;13.162;2022-11-20T05:50:02;100549.63;;;-2.83;86.14
49835;BME280;35729;52.090;13.162;2022-11-20T05:52:30;100553.91;;;-2.84;86.35
49835;BME280;35729;52.090;13.162;2022-11-20T05:54:59;100555.66;;;-2.83;86.47
49835;BME280;35729;52.090;13.162;2022-11-20T05:57:27;100556.47;;;-2.84;86.32
49835;BME280;35729;52.090;13.162;2022-11-20T05:59:56;100551.34;;;-2.84;86.20
49835;BME280;35729;52.090;13.162;2022-11-20T06:02:27;100557.31;;;-2.83;86.40
49835;BME280;35729;52.090;13.162;2022-11-20T06:04:55;100551.34;;;-2.84;86.40
49835;BME280;35729;52.090;13.162;2022-11-20T06:07:24;100546.19;;;-2.84;86.42
49835;BME280;35729;52.090;13.162;2022-11-20T06:09:52;100552.19;;;-2.83;86.33
49835;BME280;35729;52.090;13.162;2022-11-20T06:12:21;100549.59;;;-2.85;86.53
49835;BME280;35729;52.090;13.162;2022-11-20T06:14:49;100559.84;;;-2.85;86.61
49835;BME280;35729;52.090;13.162;2022-11-20T06:17:17;100552.16;;;-2.85;86.46
49835;BME280;35729;52.090;13.162;2022-11-20T06:19:49;100552.97;;;-2.86;86.10
49835;BME280;35729;52.090;13.162;2022-11-20T06:22:17;100550.41;;;-2.86;86.53
49835;BME280;35729;52.090;13.162;2022-11-20T06:24:45;100552.97;;;-2.86;86.62
49835;BME280;35729;52.090;13.162;2022-11-20T06:27:14;100548.69;;;-2.87;86.55
49835;BME280;35729;52.090;13.162;2022-11-20T06:29:42;100552.97;;;-2.86;86.61
49835;BME280;35729;52.090;13.162;2022-11-20T06:32:11;100550.41;;;-2.86;86.40
49835;BME280;35729;52.090;13.162;2022-11-20T06:34:39;100543.56;;;-2.87;86.52
49835;BME280;35729;52.090;13.162;2022-11-20T06:37:10;100547.03;;;-2.85;86.57
49835;BME280;35729;52.090;13.162;2022-11-20T06:39:39;100550.41;;;-2.86;86.29
49835;BME280;35729;52.090;13.162;2022-11-20T06:42:07;100553.81;;;-2.87;86.48
49835;BME280;35729;52.090;13.162;2022-11-20T06:44:36;100545.28;;;-2.86;86.53
49835;BME280;35729;52.090;13.162;2022-11-20T06:47:04;100551.28;;;-2.85;86.53
49835;BME280;35729;52.090;13.162;2022-11-20T06:49:33;100552.16;;;-2.85;86.91
49835;BME280;35729;52.090;13.162;2022-11-20T06:52:02;100555.53;;;-2.86;86.07
49835;BME280;35729;52.090;13.162;2022-11-20T06:54:33;100549.53;;;-2.86;86.28
49835;BME280;35729;52.090;13.162;2022-11-20T06:57:02;100553.81;;;-2.87;86.14
49835;BME280;35729;52.090;13.162;2022-11-20T06:59:30;100547.81;;;-2.87;85.85
49835;BME280;35729;52.090;13.162;2022-11-20T07:01:59;100554.56;;;-2.89;86.25
49835;BME280;35729;52.090;13.162;2022-11-20T07:04:27;100545.97;;;-2.91;85.91
49835;BME280;35729;52.090;13.162;2022-11-20T07:06:56;100551.97;;;-2.91;86.23
49835;BME280;35729;52.090;13.162;2022-11-20T07:09:24;100562.19;;;-2.92;85.52
49835;BME280;35729;52.090;13.162;2022-11-20T07:11:55;100557.91;;;-2.92;85.79
49835;BME280;35729;52.090;13.162;2022-11-20T07:14:23;100557.91;;;-2.92;85.54
49835;BME280;35729;52.090;13.162;2022-11-20T07:16:52;100557.06;;;-2.92;85.94
49835;BME280;35729;52.090;13.162;2022-11-20T07:19:20;100563.00;;;-2.93;85.76
49835;BME280;35729;52.090;13.162;2022-11-20T07:21:49;100557.03;;;-2.94;86.19
49835;BME280;35729;52.090;13.162;2022-11-20T07:24:17;100556.97;;;-2.96;84.26
49835;BME280;35729;52.090;13.162;2022-11-20T07:26:46;100557.81;;;-2.97;85.54
49835;BME280;35729;52.090;13.162;2022-11-20T07:29:17;100558.63;;;-2.98;85.00
49835;BME280;35729;52.090;13.162;2022-11-20T07:31:46;100558.59;;;-2.99;85.55
49835;BME280;35729;52.090;13.162;2022-11-20T07:34:14;100552.56;;;-3.00;86.12
49835;BME280;35729;52.090;13.162;2022-11-20T07:36:43;100559.44;;;-2.99;85.93
49835;BME280;35729;52.090;13.162;2022-11-20T07:39:11;100549.19;;;-2.99;85.75
49835;BME280;35729;52.090;13.162;2022-11-20T07:41:39;100549.22;;;-2.97;86.05
49835;BME280;35729;52.090;13.162;2022-11-20T07:44:08;100544.16;;;-2.96;86.23
49835;BME280;35729;52.090;13.162;2022-11-20T07:46:39;100542.47;;;-2.93;86.32
49835;BME280;35729;52.090;13.162;2022-11-20T07:49:07;100551.13;;;-2.91;86.49
49835;BME280;35729;52.090;13.162;2022-11-20T07:51:36;100549.41;;;-2.91;86.02
49835;BME280;35729;52.090;13.162;2022-11-20T07:54:05;100548.59;;;-2.90;85.84
49835;BME280;35729;52.090;13.162;2022-11-20T07:56:33;100553.75;;;-2.88;85.99
49835;BME280;35729;52.090;13.162;2022-11-20T07:59:03;100546.94;;;-2.88;85.20
49835;BME280;35729;52.090;13.162;2022-11-20T08:01:31;100552.97;;;-2.86;85.49
49835;BME280;35729;52.090;13.162;2022-11-20T08:04:02;100546.19;;;-2.84;85.59
49835;BME280;35729;52.090;13.162;2022-11-20T08:06:31;100549.69;;;-2.82;85.27
49835;BME280;35729;52.090;13.162;2022-11-20T08:08:59;100542.00;;;-2.82;85.25
49835;BME280;35729;52.090;13.162;2022-11-20T08:11:28;100532.44;;;-2.86;85.82
49835;BME280;35729;52.090;13.162;2022-11-20T08:14:09;100534.41;;;-2.77;85.58
49835;BME280;35729;52.090;13.162;2022-11-20T08:16:41;100525.03;;;-2.76;85.35
49835;BME280;35729;52.090;13.162;2022-11-20T08:19:14;100526.78;;;-2.75;85.63
49835;BME280;35729;52.090;13.162;2022-11-20T08:21:43;100523.41;;;-2.73;85.86
49835;BME280;35729;52.090;13.162;2022-11-20T08:24:11;100524.31;;;-2.71;85.45
49835;BME280;35729;52.090;13.162;2022-11-20T08:26:40;100532.94;;;-2.69;84.85
49835;BME280;35729;52.090;13.162;2022-11-20T08:29:08;100533.81;;;-2.68;84.71
49835;BME280;35729;52.090;13.162;2022-11-20T08:31:37;100529.59;;;-2.66;85.04
49835;BME280;35729;52.090;13.162;2022-11-20T08:34:05;100523.63;;;-2.65;84.70
49835;BME280;35729;52.090;13.162;2022-11-20T08:36:36;100521.97;;;-2.63;84.97
49835;BME280;35729;52.090;13.162;2022-11-20T08:39:05;100512.56;;;-2.63;84.22
49835;BME280;35729;52.090;13.162;2022-11-20T08:41:33;100514.31;;;-2.62;84.75
49835;BME280;35729;52.090;13.162;2022-11-20T08:44:04;100515.19;;;-2.61;84.42
49835;BME280;35729;52.090;13.162;2022-11-20T08:46:34;100510.97;;;-2.59;84.35
49835;BME280;35729;52.090;13.162;2022-11-20T08:49:03;100502.47;;;-2.56;84.58
49835;BME280;35729;52.090;13.162;2022-11-20T08:51:32;100510.28;;;-2.52;85.62
49835;BME280;35729;52.090;13.162;2022-11-20T08:54:03;100511.28;;;-2.47;84.98
49835;BME280;35729;52.090;13.162;2022-11-20T08:56:32;100507.13;;;-2.41;84.28
49835;BME280;35729;52.090;13.162;2022-11-20T08:59:01;100512.41;;;-2.37;84.97
49835;BME280;35729;52.090;13.162;2022-11-20T09:01:29;100516.88;;;-2.31;83.63
49835;BME280;35729;52.090;13.162;2022-11-20T09:03:58;100505.88;;;-2.25;84.07
49835;BME280;35729;52.090;13.162;2022-11-20T09:06:26;100504.19;;;-2.25;82.56
49835;BME280;35729;52.090;13.162;2022-11-20T09:08:55;100497.34;;;-2.23;83.30
49835;BME280;35729;52.090;13.162;2022-11-20T09:11:26;100501.81;;;-2.17;82.50
49835;BME280;35729;52.090;13.162;2022-11-20T09:13:54;100496.66;;;-2.17;82.72
49835;BME280;35729;52.090;13.162;2022-11-20T09:16:23;100501.03;;;-2.13;83.43
49835;BME280;35729;52.090;13.162;2022-11-20T09:18:51;100502.00;;;-2.09;83.77
49835;BME280;35729;52.090;13.162;2022-11-20T09:21:20;100501.28;;;-2.04;83.58
49835;BME280;35729;52.090;13.162;2022-11-20T09:23:49;100504.81;;;-2.00;83.28
49835;BME280;35729;52.090;13.162;2022-11-20T09:26:17;100497.19;;;-1.97;82.69
49835;BME280;35729;52.090;13.162;2022-11-20T09:28:48;100502.41;;;-1.92;82.22
49835;BME280;35729;52.090;13.162;2022-11-20T09:31:22;100501.75;;;-1.85;83.60
49835;BME280;35729;52.090;13.162;2022-11-20T09:33:51;100494.19;;;-1.79;82.85
49835;BME280;35729;52.090;13.162;2022-11-20T09:36:19;100490.09;;;-1.71;83.41
49835;BME280;35729;52.090;13.162;2022-11-20T09:38:48;100487.72;;;-1.63;82.79
49835;BME280;35729;52.090;13.162;2022-11-20T09:41:36;100494.81;;;-1.53;82.45
49835;BME280;35729;52.090;13.162;2022-11-20T09:44:27;100497.59;;;-1.43;82.10
49835;BME280;35729;52.090;13.162;2022-11-20T09:47:02;100492.66;;;-1.34;81.88
49835;BME280;35729;52.090;13.162;2022-11-20T09:49:46;100495.47;;;-1.25;79.23
49835;BME280;35729;52.090;13.162;2022-11-20T09:52:25;100492.22;;;-1.16;79.18
49835;BME280;35729;52.090;13.162;2022-11-20T09:54:56;100494.97;;;-1.08;79.76
49835;BME280;35729;52.090;13.162;2022-11-20T09:57:30;100488.19;;;-1.03;79.33
49835;BME280;35729;52.090;13.162;2022-11-20T10:00:06;100484.16;;;-0.92;80.94
49835;BME280;35729;52.090;13.162;2022-11-20T10:02:43;100481.63;;;-0.89;79.35
49835;BME280;35729;52.090;13.162;2022-11-20T10:05:20;100485.22;;;-0.82;76.44
49835;BME280;35729;52.090;13.162;2022-11-20T10:07:53;100479.31;;;-0.76;77.77
49835;BME280;35729;52.090;13.162;2022-11-20T10:10:31;100481.97;;;-0.73;77.15
49835;BME280;35729;52.090;13.162;2022-11-20T10:13:12;100485.41;;;-0.71;79.05
49835;BME280;35729;52.090;13.162;2022-11-20T10:15:56;100484.63;;;-0.67;77.38
49835;BME280;35729;52.090;13.162;2022-11-20T10:18:42;100480.38;;;-0.65;75.26
49835;BME280;35729;52.090;13.162;2022-11-20T10:21:23;100481.28;;;-0.63;78.52
49835;BME280;35729;52.090;13.162;2022-11-20T10:24:07;100465.91;;;-0.58;77.14
49835;BME280;35729;52.090;13.162;2022-11-20T10:26:47;100460.84;;;-0.54;78.16
49835;BME280;35729;52.090;13.162;2022-11-20T10:29:19;100465.22;;;-0.50;78.92
49835;BME280;35729;52.090;13.162;2022-11-20T10:31:56;100461.88;;;-0.45;77.67
49835;BME280;35729;52.090;13.162;2022-11-20T10:34:31;100467.09;;;-0.41;78.65
49835;BME280;35729;52.090;13.162;2022-11-20T10:37:06;100457.69;;;-0.39;78.73
49835;BME280;35729;52.090;13.162;2022-11-20T10:39:42;100462.97;;;-0.31;77.69
49835;BME280;35729;52.090;13.162;2022-11-20T10:42:17;100456.97;;;-0.31;77.06
49835;BME280;35729;52.090;13.162;2022-11-20T10:44:52;100466.50;;;-0.27;74.88
49835;BME280;35729;52.090;13.162;2022-11-20T10:47:32;100459.69;;;-0.24;77.11
49835;BME280;35729;52.090;13.162;2022-11-20T10:50:03;100451.13;;;-0.21;76.72
49835;BME280;35729;52.090;13.162;2022-11-20T10:52:43;100457.22;;;-0.18;75.35
49835;BME280;35729;52.090;13.162;2022-11-20T10:55:25;100456.47;;;-0.10;77.25
49835;BME280;35729;52.090;13.162;2022-11-20T10:58:03;100454.81;;;-0.07;76.22
49835;BME280;35729;52.090;13.162;2022-11-20T11:00:32;100454.88;;;-0.04;74.48
49835;BME280;35729;52.090;13.162;2022-11-20T11:03:14;100453.16;;;-0.03;74.90
49835;BME280;35729;52.090;13.162;2022-11-20T11:05:50;100449.75;;;-0.01;75.24
49835;BME280;35729;52.090;13.162;2022-11-20T11:08:21;100456.63;;;-0.01;73.94
49835;BME280;35729;52.090;13.162;2022-11-20T11:10:53;100449.75;;;-0.01;73.14
49835;BME280;35729;52.090;13.162;2022-11-20T11:13:24;100458.41;;;0.02;74.59
49835;BME280;35729;52.090;13.162;2022-11-20T11:15:53;100448.91;;;0.01;73.50
49835;BME280;35729;52.090;13.162;2022-11-20T11:18:26;100447.19;;;0.01;75.21
49835;BME280;35729;52.090;13.162;2022-11-20T11:20:56;100440.34;;;0.03;75.30
49835;BME280;35729;52.090;13.162;2022-11-20T11:23:32;100432.59;;;0.00;73.92
49835;BME280;35729;52.090;13.162;2022-11-20T11:26:20;100430.97;;;0.07;75.74
49835;BME280;35729;52.090;13.162;2022-11-20T11:28:54;100425.00;;;0.11;76.05
49835;BME280;35729;52.090;13.162;2022-11-20T11:31:24;100427.59;;;0.11;73.29
49835;BME280;35729;52.090;13.162;2022-11-20T11:34:03;100422.50;;;0.14;75.78
49835;BME280;35729;52.090;13.162;2022-11-20T11:36:33;100422.50;;;0.15;75.61
49835;BME280;35729;52.090;13.162;2022-11-20T11:39:03;100415.59;;;0.14;74.98
49835;BME280;35729;52.090;13.162;2022-11-20T11:41:34;100426.81;;;0.17;75.53
49835;BME280;35729;52.090;13.162;2022-11-20T11:44:15;100426.81;;;0.17;75.36
49835;BME280;35729;52.090;13.162;2022-11-20T11:47:19;100430.28;;;0.20;74.69
49835;BME280;35729;52.090;13.162;2022-11-20T11:50:14;100428.59;;;0.21;75.71
49835;BME280;35729;52.090;13.162;2022-11-20T11:52:46;100423.47;;;0.24;76.63
49835;BME280;35729;52.090;13.162;2022-11-20T11:55:24;100417.50;;;0.26;75.97
49835;BME280;35729;52.090;13.162;2022-11-20T11:57:59;100412.34;;;0.26;76.54
49835;BME280;35729;52.090;13.162;2022-11-20T12:00:34;100411.56;;;0.32;75.25
49835;BME280;35729;52.090;13.162;2022-11-20T12:03:09;100407.28;;;0.34;76.09
49835;BME280;35729;52.090;13.162;2022-11-20T12:05:47;100409.09;;;0.38;76.20
49835;BME280;35729;52.090;13.162;2022-11-20T12:08:21;100409.13;;;0.41;76.84
49835;BME280;35729;52.090;13.162;2022-11-20T12:10:56;100410.00;;;0.42;76.80
49835;BME280;35729;52.090;13.162;2022-11-20T12:13:37;100412.59;;;0.42;76.64
49835;BME280;35729;52.090;13.162;2022-11-20T12:16:11;100406.53;;;0.40;77.34
49835;BME280;35729;52.090;13.162;2022-11-20T12:18:40;100409.91;;;0.37;77.46
49835;BME280;35729;52.090;13.162;2022-11-20T12:21:18;100408.16;;;0.35;78.00
49835;BME280;35729;52.090;13.162;2022-11-20T12:24:00;100400.38;;;0.31;78.52
49835;BME280;35729;52.090;13.162;2022-11-20T12:26:44;100400.34;;;0.30;79.31
49835;BME280;35729;52.090;13.162;2022-11-20T12:29:24;100396.03;;;0.29;79.43
49835;BME280;35729;52.090;13.162;2022-11-20T12:32:22;100396.00;;;0.27;79.78
49835;BME280;35729;52.090;13.162;2022-11-20T12:35:02;100396.00;;;0.26;79.85
49835;BME280;35729;52.090;13.162;2022-11-20T12:37:41;100394.25;;;0.25;80.29
49835;BME280;35729;52.090;13.162;2022-11-20T12:40:29;100392.50;;;0.24;80.36
49835;BME280;35729;52.090;13.162;2022-11-20T12:43:11;100389.06;;;0.23;80.74
49835;BME280;35729;52.090;13.162;2022-11-20T12:46:06;100392.50;;;0.24;81.05
49835;BME280;35729;52.090;13.162;2022-11-20T12:48:45;100387.41;;;0.27;81.07
49835;BME280;35729;52.090;13.162;2022-11-20T12:51:44;100396.91;;;0.29;81.01
49835;BME280;35729;52.090;13.162;2022-11-20T12:57:26;100389.22;;;0.34;81.17
49835;BME280;35729;52.090;13.162;2022-11-20T13:00:10;100384.94;;;0.35;81.48
49835;BME280;35729;52.090;13.162;2022-11-20T13:05:37;100378.97;;;0.40;81.72
49835;BME280;35729;52.090;13.162;2022-11-20T13:08:16;100369.56;;;0.42;81.63
49835;BME280;35729;52.090;13.162;2022-11-20T13:10:51;100371.31;;;0.45;81.85